Bicycle Lake Army Air Field
KBYS : rendu visible

Aérodrome :











RETROUVEZ-NOUS SUR...

 
LOGIN :

S'inscrire | Disclaimer

   EN    FR    IT 

 









Légende :    VFR   VFR Marginal   IFR   IFR Intensif   IFR Très Intensif
Visi : 
Plafond : 
>= 8 km
>= 3000ft
5 à 8 km
1000 à 3000 ft
1500m à 5 km
500 à 1000 ft
800 à 1500m
200 à 500 ft
< 800m
< 200 ft
Symboles :   Orages  Brouillard  Fortes neiges  Fortes précipitations  Vent > 20 kt






- Altitude de l'aérodrome : 2350 ft


KBYS - Bicycle Lake Army Air Field

DERNIER METAR :
  • 080958Z AUTO 23009KT 10SM BKN020 OVC055 10/07 A2993 RMK AO2 SLP127 T01020074 $

METARs EXPIRÉS :
  • 080943Z AUTO 27011KT 10SM BKN019 OVC055 10/08 A2992 RMK AO2 CIG 018V055 SLP124
  • 080858Z AUTO 24004KT 10SM OVC050 11/09 A2995 RMK AO2 RAB32E55 SLP133 P0000 60001 55006 $
  • 080832Z AUTO 28004KT 10SM -RA SCT036 OVC048 11/10 A2995 RMK AO2 RAB32 SLP133
  • 080758Z AUTO 22005KT 10SM SCT036 OVC049 11/10 A2996 RMK AO2 RAB09E50 SLPNO P0001 T01110101 401400070 $
  • 080709Z AUTO 19006KT 10SM -RA OVC055 11/10 A2996 RMK AO2 RAB09 SLP138
  • 080658Z AUTO 00000KT 10SM OVC055 11/10 A2995 RMK AO2 RAE12 SLP134 P0000 T01120099 $

Prévision TAF périmée.



MET'MAP, la Météo Aéronautique d'un coup d'oeil ! - Copyright ORBIFLY Décembre 2007 - Disclaimer

ORBIFLY MET'MAP TEAM :

Programmation & Développement : Alexandra Zaïnal
Sur une idée originale de : Baudouin d'Aumeries
Assistance à la programmation : Marc-Olivier Méhu
Soutien technique & logistique : Manuel Goepfert

Contact : metmap@orbifly.com




SOURCES & CREDITS :

   NOAA       Earth
Advisory